sensor_id;sensor_type;location;lat;lon;timestamp;P1;durP1;ratioP1;P2;durP2;ratioP2
2710;SDS011;20721;47.402;8.550;2022-09-01T00:01:10;12.93;;;12.93;;
2710;SDS011;20721;47.402;8.550;2022-09-01T00:02:06;12.22;;;12.18;;
2710;SDS011;20721;47.402;8.550;2022-09-01T00:05:07;12.93;;;12.93;;
2710;SDS011;20721;47.402;8.550;2022-09-01T00:06:06;12.59;;;12.59;;
2710;SDS011;20721;47.402;8.550;2022-09-01T00:07:09;13.87;;;13.87;;
2710;SDS011;20721;47.402;8.550;2022-09-01T00:10:07;13.04;;;12.90;;
2710;SDS011;20721;47.402;8.550;2022-09-01T00:11:06;12.18;;;11.97;;
2710;SDS011;20721;47.402;8.550;2022-09-01T00:12:07;14.24;;;14.24;;
2710;SDS011;20721;47.402;8.550;2022-09-01T00:13:07;11.54;;;11.54;;
2710;SDS011;20721;47.402;8.550;2022-09-01T00:17:08;14.27;;;14.27;;
2710;SDS011;20721;47.402;8.550;2022-09-01T00:18:06;13.34;;;13.34;;
2710;SDS011;20721;47.402;8.550;2022-09-01T00:19:07;13.25;;;13.25;;
2710;SDS011;20721;47.402;8.550;2022-09-01T00:20:07;12.78;;;12.77;;
2710;SDS011;20721;47.402;8.550;2022-09-01T00:21:09;14.41;;;14.41;;
2710;SDS011;20721;47.402;8.550;2022-09-01T00:22:06;13.40;;;13.40;;
2710;SDS011;20721;47.402;8.550;2022-09-01T00:23:06;13.70;;;13.62;;
2710;SDS011;20721;47.402;8.550;2022-09-01T00:24:07;15.00;;;14.64;;
2710;SDS011;20721;47.402;8.550;2022-09-01T00:25:06;13.46;;;13.46;;
2710;SDS011;20721;47.402;8.550;2022-09-01T00:26:06;13.76;;;13.76;;
2710;SDS011;20721;47.402;8.550;2022-09-01T00:27:08;14.07;;;14.07;;
2710;SDS011;20721;47.402;8.550;2022-09-01T00:28:09;13.59;;;13.59;;
2710;SDS011;20721;47.402;8.550;2022-09-01T00:29:07;14.44;;;14.44;;
2710;SDS011;20721;47.402;8.550;2022-09-01T00:30:07;13.62;;;13.62;;
2710;SDS011;20721;47.402;8.550;2022-09-01T00:31:07;13.60;;;13.60;;
2710;SDS011;20721;47.402;8.550;2022-09-01T00:32:06;15.50;;;15.50;;
2710;SDS011;20721;47.402;8.550;2022-09-01T00:33:06;15.48;;;15.48;;
2710;SDS011;20721;47.402;8.550;2022-09-01T00:34:06;13.45;;;13.45;;
2710;SDS011;20721;47.402;8.550;2022-09-01T00:35:06;14.74;;;14.74;;
2710;SDS011;20721;47.402;8.550;2022-09-01T00:36:07;12.93;;;12.93;;
2710;SDS011;20721;47.402;8.550;2022-09-01T00:37:06;13.33;;;13.33;;
2710;SDS011;20721;47.402;8.550;2022-09-01T00:38:07;13.43;;;13.43;;
2710;SDS011;20721;47.402;8.550;2022-09-01T00:39:06;13.63;;;13.63;;
2710;SDS011;20721;47.402;8.550;2022-09-01T00:40:07;13.23;;;12.86;;
2710;SDS011;20721;47.402;8.550;2022-09-01T00:41:07;12.96;;;12.94;;
2710;SDS011;20721;47.402;8.550;2022-09-01T00:42:08;12.76;;;12.76;;
2710;SDS011;20721;47.402;8.550;2022-09-01T00:43:10;13.35;;;13.35;;
2710;SDS011;20721;47.402;8.550;2022-09-01T00:44:09;13.26;;;13.26;;
2710;SDS011;20721;47.402;8.550;2022-09-01T00:45:07;12.49;;;12.49;;
2710;SDS011;20721;47.402;8.550;2022-09-01T00:46:08;13.04;;;12.78;;
2710;SDS011;20721;47.402;8.550;2022-09-01T00:47:07;12.52;;;12.52;;
2710;SDS011;20721;47.402;8.550;2022-09-01T00:48:06;12.13;;;12.13;;
2710;SDS011;20721;47.402;8.550;2022-09-01T00:51:07;12.04;;;12.04;;
2710;SDS011;20721;47.402;8.550;2022-09-01T00:52:13;12.03;;;12.03;;
2710;SDS011;20721;47.402;8.550;2022-09-01T00:55:18;12.89;;;12.89;;
2710;SDS011;20721;47.402;8.550;2022-09-01T00:57:10;12.30;;;12.30;;
2710;SDS011;20721;47.402;8.550;2022-09-01T00:58:08;12.49;;;12.49;;
2710;SDS011;20721;47.402;8.550;2022-09-01T00:59:08;12.55;;;12.55;;
2710;SDS011;20721;47.402;8.550;2022-09-01T01:00:11;12.45;;;12.45;;
2710;SDS011;20721;47.402;8.550;2022-09-01T01:01:07;13.02;;;13.02;;
2710;SDS011;20721;47.402;8.550;2022-09-01T01:02:08;13.03;;;13.03;;
2710;SDS011;20721;47.402;8.550;2022-09-01T01:04:09;12.86;;;12.86;;
2710;SDS011;20721;47.402;8.550;2022-09-01T01:06:09;13.44;;;13.44;;
2710;SDS011;20721;47.402;8.550;2022-09-01T01:07:11;13.46;;;13.46;;
2710;SDS011;20721;47.402;8.550;2022-09-01T01:08:07;12.38;;;12.38;;
2710;SDS011;20721;47.402;8.550;2022-09-01T01:09:08;12.50;;;12.50;;
2710;SDS011;20721;47.402;8.550;2022-09-01T01:10:07;11.85;;;11.84;;
2710;SDS011;20721;47.402;8.550;2022-09-01T01:11:08;12.85;;;12.85;;
2710;SDS011;20721;47.402;8.550;2022-09-01T01:13:11;13.02;;;13.01;;
2710;SDS011;20721;47.402;8.550;2022-09-01T01:16:08;13.48;;;13.48;;
2710;SDS011;20721;47.402;8.550;2022-09-01T01:18:06;12.90;;;12.89;;
2710;SDS011;20721;47.402;8.550;2022-09-01T01:21:24;13.21;;;13.18;;
2710;SDS011;20721;47.402;8.550;2022-09-01T01:22:25;13.29;;;13.29;;
2710;SDS011;20721;47.402;8.550;2022-09-01T01:23:40;12.62;;;12.39;;
2710;SDS011;20721;47.402;8.550;2022-09-01T01:24:17;13.41;;;13.35;;
2710;SDS011;20721;47.402;8.550;2022-09-01T01:25:07;12.05;;;12.05;;
2710;SDS011;20721;47.402;8.550;2022-09-01T01:26:09;13.36;;;13.36;;
2710;SDS011;20721;47.402;8.550;2022-09-01T01:27:09;13.16;;;13.16;;
2710;SDS011;20721;47.402;8.550;2022-09-01T01:28:18;12.73;;;12.73;;
2710;SDS011;20721;47.402;8.550;2022-09-01T01:29:06;12.71;;;12.67;;
2710;SDS011;20721;47.402;8.550;2022-09-01T01:30:07;12.71;;;12.71;;
2710;SDS011;20721;47.402;8.550;2022-09-01T01:31:13;12.63;;;12.63;;
2710;SDS011;20721;47.402;8.550;2022-09-01T01:32:07;12.57;;;12.57;;
2710;SDS011;20721;47.402;8.550;2022-09-01T01:34:07;12.64;;;12.64;;
2710;SDS011;20721;47.402;8.550;2022-09-01T01:38:07;12.37;;;12.37;;
2710;SDS011;20721;47.402;8.550;2022-09-01T01:39:17;12.30;;;12.10;;
2710;SDS011;20721;47.402;8.550;2022-09-01T01:40:07;12.69;;;12.53;;
2710;SDS011;20721;47.402;8.550;2022-09-01T01:44:08;11.95;;;11.95;;
2710;SDS011;20721;47.402;8.550;2022-09-01T01:45:07;12.39;;;12.39;;
2710;SDS011;20721;47.402;8.550;2022-09-01T01:46:13;12.88;;;12.88;;
2710;SDS011;20721;47.402;8.550;2022-09-01T01:48:06;13.15;;;13.15;;
2710;SDS011;20721;47.402;8.550;2022-09-01T01:49:07;13.01;;;13.01;;
2710;SDS011;20721;47.402;8.550;2022-09-01T01:51:09;12.86;;;12.86;;
2710;SDS011;20721;47.402;8.550;2022-09-01T01:52:07;12.87;;;12.87;;
2710;SDS011;20721;47.402;8.550;2022-09-01T01:53:09;12.74;;;12.74;;
2710;SDS011;20721;47.402;8.550;2022-09-01T01:55:07;13.77;;;13.46;;
2710;SDS011;20721;47.402;8.550;2022-09-01T01:57:08;12.87;;;12.87;;
2710;SDS011;20721;47.402;8.550;2022-09-01T01:59:08;12.79;;;12.79;;
2710;SDS011;20721;47.402;8.550;2022-09-01T02:04:12;13.86;;;13.86;;
2710;SDS011;20721;47.402;8.550;2022-09-01T02:05:07;14.37;;;14.37;;
2710;SDS011;20721;47.402;8.550;2022-09-01T02:06:08;13.14;;;13.14;;
2710;SDS011;20721;47.402;8.550;2022-09-01T02:08:10;12.71;;;12.71;;
2710;SDS011;20721;47.402;8.550;2022-09-01T02:10:07;13.49;;;13.49;;
2710;SDS011;20721;47.402;8.550;2022-09-01T02:13:15;12.89;;;12.89;;
2710;SDS011;20721;47.402;8.550;2022-09-01T02:14:07;12.47;;;12.47;;
2710;SDS011;20721;47.402;8.550;2022-09-01T02:15:09;14.72;;;14.72;;
2710;SDS011;20721;47.402;8.550;2022-09-01T02:16:08;12.62;;;12.62;;
2710;SDS011;20721;47.402;8.550;2022-09-01T02:18:10;14.04;;;14.04;;
2710;SDS011;20721;47.402;8.550;2022-09-01T02:19:07;14.03;;;14.03;;
2710;SDS011;20721;47.402;8.550;2022-09-01T02:20:08;13.22;;;13.22;;
2710;SDS011;20721;47.402;8.550;2022-09-01T02:21:09;13.63;;;13.63;;
2710;SDS011;20721;47.402;8.550;2022-09-01T02:22:09;14.04;;;14.04;;
2710;SDS011;20721;47.402;8.550;2022-09-01T02:23:07;14.61;;;14.61;;
2710;SDS011;20721;47.402;8.550;2022-09-01T02:24:12;14.78;;;14.78;;
2710;SDS011;20721;47.402;8.550;2022-09-01T02:25:06;13.97;;;13.97;;
2710;SDS011;20721;47.402;8.550;2022-09-01T02:26:17;13.60;;;13.60;;
2710;SDS011;20721;47.402;8.550;2022-09-01T02:27:09;13.87;;;13.85;;
2710;SDS011;20721;47.402;8.550;2022-09-01T02:28:07;13.73;;;13.73;;
2710;SDS011;20721;47.402;8.550;2022-09-01T02:29:09;14.63;;;14.63;;
2710;SDS011;20721;47.402;8.550;2022-09-01T02:30:07;14.08;;;14.08;;
2710;SDS011;20721;47.402;8.550;2022-09-01T02:31:09;13.87;;;13.83;;
2710;SDS011;20721;47.402;8.550;2022-09-01T02:32:07;14.31;;;14.31;;
2710;SDS011;20721;47.402;8.550;2022-09-01T02:33:08;13.02;;;13.02;;
2710;SDS011;20721;47.402;8.550;2022-09-01T02:34:07;13.95;;;13.90;;
2710;SDS011;20721;47.402;8.550;2022-09-01T02:35:10;13.57;;;13.57;;
2710;SDS011;20721;47.402;8.550;2022-09-01T02:36:10;14.01;;;14.01;;
2710;SDS011;20721;47.402;8.550;2022-09-01T02:37:07;13.72;;;13.72;;
2710;SDS011;20721;47.402;8.550;2022-09-01T02:39:09;13.86;;;13.86;;
2710;SDS011;20721;47.402;8.550;2022-09-01T02:40:07;14.34;;;14.34;;
2710;SDS011;20721;47.402;8.550;2022-09-01T02:41:07;13.69;;;13.69;;
2710;SDS011;20721;47.402;8.550;2022-09-01T02:43:09;13.80;;;13.80;;
2710;SDS011;20721;47.402;8.550;2022-09-01T02:44:09;13.32;;;13.32;;
2710;SDS011;20721;47.402;8.550;2022-09-01T02:45:08;13.53;;;13.53;;
2710;SDS011;20721;47.402;8.550;2022-09-01T02:46:09;13.32;;;13.32;;
2710;SDS011;20721;47.402;8.550;2022-09-01T02:47:07;14.70;;;14.51;;
2710;SDS011;20721;47.402;8.550;2022-09-01T02:48:07;14.46;;;14.05;;
2710;SDS011;20721;47.402;8.550;2022-09-01T02:50:10;15.51;;;15.03;;
2710;SDS011;20721;47.402;8.550;2022-09-01T02:53:11;14.60;;;14.60;;
2710;SDS011;20721;47.402;8.550;2022-09-01T02:54:07;14.51;;;14.51;;
2710;SDS011;20721;47.402;8.550;2022-09-01T02:55:07;13.18;;;13.18;;
2710;SDS011;20721;47.402;8.550;2022-09-01T02:56:09;13.61;;;13.17;;
2710;SDS011;20721;47.402;8.550;2022-09-01T02:57:07;13.28;;;13.28;;
2710;SDS011;20721;47.402;8.550;2022-09-01T02:58:07;13.99;;;13.99;;
2710;SDS011;20721;47.402;8.550;2022-09-01T02:59:07;14.23;;;14.23;;
2710;SDS011;20721;47.402;8.550;2022-09-01T03:01:11;14.34;;;14.34;;
2710;SDS011;20721;47.402;8.550;2022-09-01T03:02:07;14.94;;;14.94;;
2710;SDS011;20721;47.402;8.550;2022-09-01T03:03:09;14.35;;;14.35;;
2710;SDS011;20721;47.402;8.550;2022-09-01T03:04:09;14.89;;;14.89;;
2710;SDS011;20721;47.402;8.550;2022-09-01T03:05:07;15.22;;;15.22;;
2710;SDS011;20721;47.402;8.550;2022-09-01T03:06:07;15.30;;;15.30;;
2710;SDS011;20721;47.402;8.550;2022-09-01T03:07:07;15.21;;;15.17;;
2710;SDS011;20721;47.402;8.550;2022-09-01T03:08:10;13.91;;;13.91;;
2710;SDS011;20721;47.402;8.550;2022-09-01T03:09:11;15.76;;;15.76;;
2710;SDS011;20721;47.402;8.550;2022-09-01T03:10:07;15.66;;;15.66;;
2710;SDS011;20721;47.402;8.550;2022-09-01T03:11:10;15.55;;;15.41;;
2710;SDS011;20721;47.402;8.550;2022-09-01T03:12:07;15.28;;;15.28;;
2710;SDS011;20721;47.402;8.550;2022-09-01T03:13:09;15.74;;;15.73;;
2710;SDS011;20721;47.402;8.550;2022-09-01T03:16:07;17.30;;;16.68;;
2710;SDS011;20721;47.402;8.550;2022-09-01T03:17:09;14.99;;;14.99;;
2710;SDS011;20721;47.402;8.550;2022-09-01T03:18:10;16.64;;;16.64;;
2710;SDS011;20721;47.402;8.550;2022-09-01T03:20:08;15.19;;;15.19;;
2710;SDS011;20721;47.402;8.550;2022-09-01T03:21:08;15.87;;;15.84;;
2710;SDS011;20721;47.402;8.550;2022-09-01T03:22:09;15.51;;;15.51;;
2710;SDS011;20721;47.402;8.550;2022-09-01T03:23:07;16.87;;;16.87;;
2710;SDS011;20721;47.402;8.550;2022-09-01T03:24:09;16.16;;;16.11;;
2710;SDS011;20721;47.402;8.550;2022-09-01T03:25:07;16.50;;;16.50;;
2710;SDS011;20721;47.402;8.550;2022-09-01T03:27:07;16.73;;;16.73;;
2710;SDS011;20721;47.402;8.550;2022-09-01T03:28:09;15.62;;;15.60;;
2710;SDS011;20721;47.402;8.550;2022-09-01T03:29:07;17.05;;;17.05;;
2710;SDS011;20721;47.402;8.550;2022-09-01T03:30:07;16.13;;;16.13;;
2710;SDS011;20721;47.402;8.550;2022-09-01T03:31:07;16.60;;;16.58;;
2710;SDS011;20721;47.402;8.550;2022-09-01T03:33:07;16.88;;;16.88;;
2710;SDS011;20721;47.402;8.550;2022-09-01T03:34:07;16.94;;;16.94;;
2710;SDS011;20721;47.402;8.550;2022-09-01T03:35:07;17.08;;;16.88;;
2710;SDS011;20721;47.402;8.550;2022-09-01T03:36:07;14.99;;;14.99;;
2710;SDS011;20721;47.402;8.550;2022-09-01T03:37:07;16.60;;;16.31;;
2710;SDS011;20721;47.402;8.550;2022-09-01T03:38:09;16.28;;;15.82;;
2710;SDS011;20721;47.402;8.550;2022-09-01T03:40:10;17.19;;;17.11;;
2710;SDS011;20721;47.402;8.550;2022-09-01T03:41:12;16.56;;;16.38;;
2710;SDS011;20721;47.402;8.550;2022-09-01T03:42:08;17.45;;;17.01;;
2710;SDS011;20721;47.402;8.550;2022-09-01T03:43:08;17.10;;;16.75;;
2710;SDS011;20721;47.402;8.550;2022-09-01T03:44:08;16.42;;;16.41;;
2710;SDS011;20721;47.402;8.550;2022-09-01T03:45:07;17.18;;;17.07;;
2710;SDS011;20721;47.402;8.550;2022-09-01T03:46:09;16.82;;;16.81;;
2710;SDS011;20721;47.402;8.550;2022-09-01T03:47:07;17.26;;;17.07;;
2710;SDS011;20721;47.402;8.550;2022-09-01T03:48:07;16.37;;;16.30;;
2710;SDS011;20721;47.402;8.550;2022-09-01T03:49:10;17.09;;;17.09;;
2710;SDS011;20721;47.402;8.550;2022-09-01T03:50:11;17.03;;;17.02;;
2710;SDS011;20721;47.402;8.550;2022-09-01T03:52:08;16.61;;;16.53;;
2710;SDS011;20721;47.402;8.550;2022-09-01T03:54:08;16.14;;;16.13;;
2710;SDS011;20721;47.402;8.550;2022-09-01T03:55:08;16.38;;;16.38;;
2710;SDS011;20721;47.402;8.550;2022-09-01T03:56:09;17.08;;;16.52;;
2710;SDS011;20721;47.402;8.550;2022-09-01T03:57:09;17.77;;;17.23;;
2710;SDS011;20721;47.402;8.550;2022-09-01T03:58:08;16.79;;;16.26;;
2710;SDS011;20721;47.402;8.550;2022-09-01T03:59:08;16.96;;;16.52;;
2710;SDS011;20721;47.402;8.550;2022-09-01T04:00:08;16.07;;;15.69;;
2710;SDS011;20721;47.402;8.550;2022-09-01T04:02:07;16.51;;;16.51;;
2710;SDS011;20721;47.402;8.550;2022-09-01T04:03:08;15.61;;;15.61;;
2710;SDS011;20721;47.402;8.550;2022-09-01T04:04:07;14.55;;;14.53;;
2710;SDS011;20721;47.402;8.550;2022-09-01T04:05:08;15.21;;;15.08;;
2710;SDS011;20721;47.402;8.550;2022-09-01T04:06:08;15.82;;;15.75;;
2710;SDS011;20721;47.402;8.550;2022-09-01T04:07:07;15.35;;;15.35;;
2710;SDS011;20721;47.402;8.550;2022-09-01T04:08:08;14.98;;;14.95;;
2710;SDS011;20721;47.402;8.550;2022-09-01T04:10:07;16.92;;;16.92;;
2710;SDS011;20721;47.402;8.550;2022-09-01T04:11:11;17.76;;;17.76;;
2710;SDS011;20721;47.402;8.550;2022-09-01T04:12:07;16.04;;;16.03;;
2710;SDS011;20721;47.402;8.550;2022-09-01T04:13:08;17.72;;;17.34;;
2710;SDS011;20721;47.402;8.550;2022-09-01T04:14:09;16.47;;;16.20;;
2710;SDS011;20721;47.402;8.550;2022-09-01T04:15:08;16.51;;;16.27;;
2710;SDS011;20721;47.402;8.550;2022-09-01T04:16:15;16.00;;;15.73;;
2710;SDS011;20721;47.402;8.550;2022-09-01T04:17:17;15.88;;;15.51;;
2710;SDS011;20721;47.402;8.550;2022-09-01T04:18:17;16.09;;;16.08;;
2710;SDS011;20721;47.402;8.550;2022-09-01T04:20:07;16.30;;;16.29;;
2710;SDS011;20721;47.402;8.550;2022-09-01T04:21:07;16.05;;;16.01;;
2710;SDS011;20721;47.402;8.550;2022-09-01T04:22:09;14.73;;;14.73;;
2710;SDS011;20721;47.402;8.550;2022-09-01T04:23:07;16.15;;;15.88;;
2710;SDS011;20721;47.402;8.550;2022-09-01T04:24:09;15.47;;;15.47;;
2710;SDS011;20721;47.402;8.550;2022-09-01T04:25:07;15.61;;;15.54;;
2710;SDS011;20721;47.402;8.550;2022-09-01T04:26:10;17.06;;;16.90;;
2710;SDS011;20721;47.402;8.550;2022-09-01T04:27:09;16.53;;;16.31;;
2710;SDS011;20721;47.402;8.550;2022-09-01T04:28:07;16.10;;;15.99;;
2710;SDS011;20721;47.402;8.550;2022-09-01T04:29:07;15.80;;;15.71;;
2710;SDS011;20721;47.402;8.550;2022-09-01T04:30:10;15.96;;;15.74;;
2710;SDS011;20721;47.402;8.550;2022-09-01T04:31:08;16.13;;;15.71;;
2710;SDS011;20721;47.402;8.550;2022-09-01T04:32:13;15.65;;;15.27;;
2710;SDS011;20721;47.402;8.550;2022-09-01T04:33:07;15.32;;;15.26;;
2710;SDS011;20721;47.402;8.550;2022-09-01T04:34:07;15.20;;;15.12;;
2710;SDS011;20721;47.402;8.550;2022-09-01T04:35:07;14.82;;;14.68;;
2710;SDS011;20721;47.402;8.550;2022-09-01T04:36:14;14.96;;;14.96;;
2710;SDS011;20721;47.402;8.550;2022-09-01T04:37:13;16.54;;;16.48;;
2710;SDS011;20721;47.402;8.550;2022-09-01T04:38:07;16.03;;;16.00;;
2710;SDS011;20721;47.402;8.550;2022-09-01T04:39:09;14.74;;;14.70;;
2710;SDS011;20721;47.402;8.550;2022-09-01T04:40:08;16.30;;;16.07;;
2710;SDS011;20721;47.402;8.550;2022-09-01T04:41:07;15.09;;;15.09;;
2710;SDS011;20721;47.402;8.550;2022-09-01T04:42:07;16.83;;;16.74;;
2710;SDS011;20721;47.402;8.550;2022-09-01T04:43:07;15.83;;;15.83;;
2710;SDS011;20721;47.402;8.550;2022-09-01T04:44:09;16.45;;;16.41;;
2710;SDS011;20721;47.402;8.550;2022-09-01T04:45:09;15.66;;;15.33;;
2710;SDS011;20721;47.402;8.550;2022-09-01T04:46:08;16.19;;;15.61;;
2710;SDS011;20721;47.402;8.550;2022-09-01T04:47:07;15.85;;;15.47;;
2710;SDS011;20721;47.402;8.550;2022-09-01T04:48:09;14.45;;;14.17;;
2710;SDS011;20721;47.402;8.550;2022-09-01T04:49:07;15.23;;;15.23;;
2710;SDS011;20721;47.402;8.550;2022-09-01T04:50:09;14.87;;;14.87;;
2710;SDS011;20721;47.402;8.550;2022-09-01T04:51:08;15.43;;;15.21;;
2710;SDS011;20721;47.402;8.550;2022-09-01T04:52:07;15.61;;;15.35;;
2710;SDS011;20721;47.402;8.550;2022-09-01T04:53:08;16.67;;;16.16;;
2710;SDS011;20721;47.402;8.550;2022-09-01T04:54:08;16.09;;;15.69;;
2710;SDS011;20721;47.402;8.550;2022-09-01T04:55:08;15.53;;;15.26;;
2710;SDS011;20721;47.402;8.550;2022-09-01T04:57:07;15.87;;;15.38;;
2710;SDS011;20721;47.402;8.550;2022-09-01T04:58:08;16.09;;;15.69;;
2710;SDS011;20721;47.402;8.550;2022-09-01T05:00:07;13.74;;;13.69;;
2710;SDS011;20721;47.402;8.550;2022-09-01T05:01:13;13.54;;;13.53;;
2710;SDS011;20721;47.402;8.550;2022-09-01T05:02:09;14.60;;;14.60;;
2710;SDS011;20721;47.402;8.550;2022-09-01T05:03:13;15.70;;;15.70;;
2710;SDS011;20721;47.402;8.550;2022-09-01T05:04:12;15.03;;;15.03;;
2710;SDS011;20721;47.402;8.550;2022-09-01T05:05:07;15.08;;;15.08;;
2710;SDS011;20721;47.402;8.550;2022-09-01T05:06:11;15.33;;;15.30;;
2710;SDS011;20721;47.402;8.550;2022-09-01T05:07:13;14.91;;;14.68;;
2710;SDS011;20721;47.402;8.550;2022-09-01T05:08:09;15.26;;;15.26;;
2710;SDS011;20721;47.402;8.550;2022-09-01T05:10:11;14.97;;;14.96;;
2710;SDS011;20721;47.402;8.550;2022-09-01T05:12:08;14.48;;;14.48;;
2710;SDS011;20721;47.402;8.550;2022-09-01T05:14:07;15.30;;;15.29;;
2710;SDS011;20721;47.402;8.550;2022-09-01T05:15:07;15.38;;;15.23;;
2710;SDS011;20721;47.402;8.550;2022-09-01T05:17:08;14.56;;;14.23;;
2710;SDS011;20721;47.402;8.550;2022-09-01T05:18:14;14.40;;;14.39;;
2710;SDS011;20721;47.402;8.550;2022-09-01T05:19:07;14.93;;;14.93;;
2710;SDS011;20721;47.402;8.550;2022-09-01T05:20:07;15.45;;;15.28;;
2710;SDS011;20721;47.402;8.550;2022-09-01T05:21:07;15.30;;;15.28;;
2710;SDS011;20721;47.402;8.550;2022-09-01T05:22:09;14.80;;;14.78;;
2710;SDS011;20721;47.402;8.550;2022-09-01T05:23:08;16.52;;;16.24;;
2710;SDS011;20721;47.402;8.550;2022-09-01T05:24:07;15.59;;;15.30;;
2710;SDS011;20721;47.402;8.550;2022-09-01T05:25:09;14.30;;;14.30;;
2710;SDS011;20721;47.402;8.550;2022-09-01T05:26:11;15.49;;;15.48;;
2710;SDS011;20721;47.402;8.550;2022-09-01T05:27:08;17.75;;;17.14;;
2710;SDS011;20721;47.402;8.550;2022-09-01T05:29:09;15.19;;;15.19;;
2710;SDS011;20721;47.402;8.550;2022-09-01T05:30:09;16.04;;;16.04;;
2710;SDS011;20721;47.402;8.550;2022-09-01T05:32:07;16.66;;;16.55;;
2710;SDS011;20721;47.402;8.550;2022-09-01T05:33:07;16.08;;;15.89;;
2710;SDS011;20721;47.402;8.550;2022-09-01T05:34:08;15.46;;;15.30;;
2710;SDS011;20721;47.402;8.550;2022-09-01T05:35:07;16.67;;;16.55;;
2710;SDS011;20721;47.402;8.550;2022-09-01T05:36:09;15.90;;;15.52;;
2710;SDS011;20721;47.402;8.550;2022-09-01T05:37:08;16.07;;;15.85;;
2710;SDS011;20721;47.402;8.550;2022-09-01T05:38:09;17.42;;;17.22;;
2710;SDS011;20721;47.402;8.550;2022-09-01T05:39:09;17.34;;;17.17;;
2710;SDS011;20721;47.402;8.550;2022-09-01T05:40:07;15.95;;;15.95;;
2710;SDS011;20721;47.402;8.550;2022-09-01T05:41:09;16.14;;;15.66;;
2710;SDS011;20721;47.402;8.550;2022-09-01T05:42:08;15.51;;;15.44;;
2710;SDS011;20721;47.402;8.550;2022-09-01T05:43:08;15.71;;;15.71;;
2710;SDS011;20721;47.402;8.550;2022-09-01T05:44:12;15.24;;;15.24;;
2710;SDS011;20721;47.402;8.550;2022-09-01T05:46:19;15.27;;;15.22;;
2710;SDS011;20721;47.402;8.550;2022-09-01T05:47:08;16.16;;;15.82;;
2710;SDS011;20721;47.402;8.550;2022-09-01T05:48:10;14.62;;;14.45;;
2710;SDS011;20721;47.402;8.550;2022-09-01T05:49:07;16.70;;;16.33;;
2710;SDS011;20721;47.402;8.550;2022-09-01T05:50:11;14.31;;;14.31;;
2710;SDS011;20721;47.402;8.550;2022-09-01T05:52:08;15.17;;;14.78;;
2710;SDS011;20721;47.402;8.550;2022-09-01T05:53:08;15.31;;;14.97;;
2710;SDS011;20721;47.402;8.550;2022-09-01T05:54:09;16.00;;;15.53;;
2710;SDS011;20721;47.402;8.550;2022-09-01T05:55:09;15.42;;;15.42;;
2710;SDS011;20721;47.402;8.550;2022-09-01T05:56:09;14.90;;;14.90;;
2710;SDS011;20721;47.402;8.550;2022-09-01T05:57:08;15.28;;;15.28;;
2710;SDS011;20721;47.402;8.550;2022-09-01T05:58:08;15.07;;;14.94;;
2710;SDS011;20721;47.402;8.550;2022-09-01T05:59:17;15.91;;;15.53;;
2710;SDS011;20721;47.402;8.550;2022-09-01T06:00:08;15.38;;;14.93;;
2710;SDS011;20721;47.402;8.550;2022-09-01T06:01:08;13.85;;;13.85;;
2710;SDS011;20721;47.402;8.550;2022-09-01T06:02:07;14.55;;;14.55;;
2710;SDS011;20721;47.402;8.550;2022-09-01T06:03:08;14.83;;;14.83;;
2710;SDS011;20721;47.402;8.550;2022-09-01T06:04:10;13.47;;;13.47;;
2710;SDS011;20721;47.402;8.550;2022-09-01T06:05:09;14.08;;;14.08;;
2710;SDS011;20721;47.402;8.550;2022-09-01T06:08:08;15.33;;;15.03;;
2710;SDS011;20721;47.402;8.550;2022-09-01T06:09:08;15.99;;;15.64;;
2710;SDS011;20721;47.402;8.550;2022-09-01T06:10:09;14.64;;;14.63;;
2710;SDS011;20721;47.402;8.550;2022-09-01T06:11:07;14.89;;;14.88;;
2710;SDS011;20721;47.402;8.550;2022-09-01T06:12:07;14.37;;;14.37;;
2710;SDS011;20721;47.402;8.550;2022-09-01T06:13:11;17.17;;;16.57;;
2710;SDS011;20721;47.402;8.550;2022-09-01T06:14:09;15.82;;;15.44;;
2710;SDS011;20721;47.402;8.550;2022-09-01T06:15:08;16.02;;;16.00;;
2710;SDS011;20721;47.402;8.550;2022-09-01T06:17:07;15.44;;;15.43;;
2710;SDS011;20721;47.402;8.550;2022-09-01T06:19:08;14.89;;;14.79;;
2710;SDS011;20721;47.402;8.550;2022-09-01T06:20:07;15.04;;;14.76;;
2710;SDS011;20721;47.402;8.550;2022-09-01T06:22:07;16.54;;;16.51;;
2710;SDS011;20721;47.402;8.550;2022-09-01T06:23:07;15.80;;;15.74;;
2710;SDS011;20721;47.402;8.550;2022-09-01T06:26:25;14.65;;;14.65;;
2710;SDS011;20721;47.402;8.550;2022-09-01T06:27:08;15.48;;;15.48;;
2710;SDS011;20721;47.402;8.550;2022-09-01T06:28:07;14.77;;;14.77;;
2710;SDS011;20721;47.402;8.550;2022-09-01T06:29:09;15.47;;;15.39;;
2710;SDS011;20721;47.402;8.550;2022-09-01T06:30:07;15.39;;;15.39;;
2710;SDS011;20721;47.402;8.550;2022-09-01T06:31:07;15.65;;;15.49;;
2710;SDS011;20721;47.402;8.550;2022-09-01T06:32:08;17.10;;;16.62;;
2710;SDS011;20721;47.402;8.550;2022-09-01T06:33:10;16.50;;;16.32;;
2710;SDS011;20721;47.402;8.550;2022-09-01T06:35:10;16.67;;;16.67;;
2710;SDS011;20721;47.402;8.550;2022-09-01T06:36:10;15.06;;;15.06;;
2710;SDS011;20721;47.402;8.550;2022-09-01T06:37:09;14.68;;;14.63;;
2710;SDS011;20721;47.402;8.550;2022-09-01T06:38:08;14.29;;;14.29;;
2710;SDS011;20721;47.402;8.550;2022-09-01T06:39:10;16.19;;;15.60;;
2710;SDS011;20721;47.402;8.550;2022-09-01T06:40:07;15.84;;;15.76;;
2710;SDS011;20721;47.402;8.550;2022-09-01T06:41:11;16.14;;;16.12;;
2710;SDS011;20721;47.402;8.550;2022-09-01T06:42:08;14.57;;;14.53;;
2710;SDS011;20721;47.402;8.550;2022-09-01T06:43:09;14.95;;;14.73;;
2710;SDS011;20721;47.402;8.550;2022-09-01T06:44:11;15.75;;;15.66;;
2710;SDS011;20721;47.402;8.550;2022-09-01T06:45:07;14.71;;;14.71;;
2710;SDS011;20721;47.402;8.550;2022-09-01T06:47:08;15.27;;;14.89;;
2710;SDS011;20721;47.402;8.550;2022-09-01T06:48:10;14.55;;;14.29;;
2710;SDS011;20721;47.402;8.550;2022-09-01T06:49:08;14.73;;;14.72;;
2710;SDS011;20721;47.402;8.550;2022-09-01T06:50:10;14.46;;;14.46;;
2710;SDS011;20721;47.402;8.550;2022-09-01T06:51:19;15.09;;;15.09;;
2710;SDS011;20721;47.402;8.550;2022-09-01T06:52:08;16.28;;;15.99;;
2710;SDS011;20721;47.402;8.550;2022-09-01T06:53:21;14.92;;;14.62;;
2710;SDS011;20721;47.402;8.550;2022-09-01T06:54:08;15.12;;;14.71;;
2710;SDS011;20721;47.402;8.550;2022-09-01T06:55:09;16.28;;;15.94;;
2710;SDS011;20721;47.402;8.550;2022-09-01T06:56:08;15.46;;;15.13;;
2710;SDS011;20721;47.402;8.550;2022-09-01T06:57:08;15.07;;;15.05;;
2710;SDS011;20721;47.402;8.550;2022-09-01T07:00:08;15.41;;;15.41;;
2710;SDS011;20721;47.402;8.550;2022-09-01T07:01:08;15.57;;;15.48;;
2710;SDS011;20721;47.402;8.550;2022-09-01T07:03:08;15.52;;;15.15;;
2710;SDS011;20721;47.402;8.550;2022-09-01T07:04:08;14.25;;;14.23;;
2710;SDS011;20721;47.402;8.550;2022-09-01T07:05:07;14.95;;;14.79;;
2710;SDS011;20721;47.402;8.550;2022-09-01T07:06:14;14.29;;;14.29;;
2710;SDS011;20721;47.402;8.550;2022-09-01T07:07:19;14.32;;;14.20;;
2710;SDS011;20721;47.402;8.550;2022-09-01T07:08:19;14.11;;;14.11;;
2710;SDS011;20721;47.402;8.550;2022-09-01T07:09:17;14.22;;;14.22;;
2710;SDS011;20721;47.402;8.550;2022-09-01T07:10:18;14.21;;;14.21;;
2710;SDS011;20721;47.402;8.550;2022-09-01T07:11:25;16.03;;;15.73;;
2710;SDS011;20721;47.402;8.550;2022-09-01T07:12:17;15.17;;;15.14;;
2710;SDS011;20721;47.402;8.550;2022-09-01T07:13:18;14.03;;;13.90;;
2710;SDS011;20721;47.402;8.550;2022-09-01T07:14:17;15.32;;;14.99;;
2710;SDS011;20721;47.402;8.550;2022-09-01T07:15:17;14.67;;;14.22;;
2710;SDS011;20721;47.402;8.550;2022-09-01T07:16:25;14.18;;;13.89;;